Kezdőlap
METAR-TAF:

METAR-TAF

Repülőterek :

Kugaaruk, Nunavut, Kanada

földrajzi szélesség: 68-32N, földrajzi hosszúság: 089-49W, magasság: 15 m

Jelenlegi meteorológiai megfigyelések

A jelentés 13 perccel ezelõtt készült, 00:00 UTC
Nyugat-északnyugati szél 21 kt
Hőmérséklet -14°C
Páratartalom 78%
Légköri nyomás 998 hPa
Látótávolság: 1.6 km
Szakadozott felhőzet 1000 lábon
hófúvás

METAR: CYBB 190000Z 30021KT 1SM BLSN BKN010 M14/M17 A2948 RMK BLSN4ST2 SLP988

Idő: 17:13 (00:13 UTC)

Előrejelzés

A jelentés 6 órával és 35 perccel ezelõtt készült, 17:38 UTC
Az előrejelzés 18-én 18 óra UTC és 19-én 01 óra UTC között érvényes
Nyugati szél 20 kt széllökések: 30 kt
Látótávolság: 0.4 km
200 lábon
enyhe havazás, (erõs) , hó
18-én 18 óra UTC és 19-én 01 óra UTC között ideiglenes
Látótávolság: 1.6 km
Borult 2000 lábon
hófúvás

TAF: CYBB 181738Z 1818/1901 27020G30KT 1/4SM -SN +BLSN VV002 TEMPO 1818/1901 1SM BLSN OVC020 RMK NXT FCST WILL BE ISSUED AT 191945Z

Meteorológiai megfigyelések és előrejelzések több, mint 4000 repülőtéren (METAR és TAF jelentéseket).

A térképen piros és sárga pontok jelzik az elérhető meteorológiai állomásokat.

Mozgassa az egeret a pont fölött, hogy megjelenjen az állomás neve.

Azután kattintson az időjárási megfigyelések és előrejelzések megtekintéséhez.

A térkép megváltoztatása: kattintson a fekete keresztel jelölt zöld gombra ráközelítéshez, a vonallal jelölt zöld gombra távolításhoz, vagy a zöld nyilakra a szomszédos térképek eléréséhez.


METAR-TAF: